Home > Products > Valid Products > TAF

000
FTUS43 KIND 291100
TAFIND
TAF
KIND 291120Z 2912/3018 30005KT P6SM SCT050
     FM291600 30009KT P6SM BKN050
     FM300100 26004KT P6SM SCT050
     FM301600 26008KT P6SM BKN050=



000
FTUS43 KIND 291100
TAFLAF
TAF
KLAF 291120Z 2912/3012 30005KT P6SM SCT050
     FM291600 30009KT P6SM BKN050
     FM300100 VRB02KT P6SM SCT050
      AMD LTD TO CLD VIS AND WIND TIL 291300=



000
FTUS43 KIND 290800 AAA
TAFIND
TAF AMD
KIND 290825Z 2908/3012 30005KT P6SM SCT045
     FM291500 30009KT P6SM BKN045
     FM300000 26004KT P6SM FEW050 SCT120=



000
FTUS43 KIND 290500
TAFIND
TAF
KIND 290520Z 2906/3012 32010KT P6SM SKC
     FM291000 33005KT P6SM SCT045
     FM291500 30009KT P6SM BKN045
     FM300000 26004KT P6SM FEW050 SCT120=



000
FTUS43 KIND 290500
TAFLAF
TAF
KLAF 290520Z 2906/3006 VRB03KT P6SM SKC
     FM290800 32003KT P6SM SCT045
     FM291400 31008KT P6SM BKN045
     FM300000 26003KT P6SM SCT050 BKN120
      AMD LTD TO CLD VIS AND WIND TIL 291300=



000
FTUS43 KIND 290200 AAA
TAFIND
TAF AMD
KIND 290230Z 2903/3006 32007KT P6SM SKC
     FM290900 33005KT P6SM SCT040
     FM291500 30009KT P6SM BKN045
     FM300000 29005KT P6SM SCT050 SCT100=



000
FTUS43 KIND 282300
TAFLAF
TAF
KLAF 282340Z 2900/2924 34009KT P6SM FEW050
     FM290130 34004KT P6SM SKC
     FM290800 32003KT P6SM SCT040
     FM291500 31008KT P6SM BKN045
      AMD LTD TO CLD VIS AND WIND 2901/2913=



000
FTUS43 KIND 282300
TAFIND
TAF
KIND 282340Z 2900/3006 33012G20KT P6SM SCT050
     FM290200 33008KT P6SM FEW050
     FM290900 33005KT P6SM SCT040
     FM291500 30009KT P6SM BKN045
     FM300000 29005KT P6SM SCT050 SCT100=



000
FTUS43 KIND 282000 AAB
TAFIND
TAF AMD
KIND 282025Z 2820/2924 33013G22KT P6SM FEW035 BKN050
     FM290000 34012KT P6SM SCT050
     FM290900 33005KT P6SM BKN040
     FM291500 30008KT P6SM BKN050=



000
FTUS43 KIND 281800 AAA
TAFIND
TAF AMD
KIND 281859Z 2819/2924 33014G22KT P6SM BKN035
     FM290000 34012KT P6SM SCT050
     FM290900 33005KT P6SM BKN040
     FM291500 30008KT P6SM BKN050=



000
FTUS43 KIND 281800 AAA
TAFLAF
TAF AMD
KLAF 281858Z 2819/2918 35014G22KT P6SM BKN035
     FM282300 34005KT P6SM SCT050
     FM290800 32003KT P6SM BKN040
     FM291500 31008KT P6SM BKN050=



000
FTUS43 KIND 281700
TAFLAF
TAF
KLAF 281730Z 2818/2918 35012G20KT P6SM BKN028
     FM282000 35014G22KT P6SM BKN035
     FM282300 34005KT P6SM SCT050
     FM290800 32003KT P6SM BKN040
     FM291500 31008KT P6SM BKN050=



000
FTUS43 KIND 281700
TAFIND
TAF
KIND 281730Z 2818/2924 32012KT P6SM BKN022
     FM282000 33014G22KT P6SM BKN035
     FM290000 34012KT P6SM SCT050
     FM290900 33005KT P6SM BKN040
     FM291500 30008KT P6SM BKN050=



000
FTUS43 KIND 281400 AAA
TAFLAF
TAF AMD
KLAF 281420Z 2814/2912 34012G18KT P6SM BKN020
     FM281700 35014G22KT P6SM BKN035
     FM290100 32005KT P6SM SKC=



000
FTUS43 KIND 281400 AAA
TAFIND
TAF AMD
KIND 281417Z 2814/2918 33011KT P6SM OVC018
     FM281600 32014KT P6SM BKN025
     FM281800 33015G25KT P6SM BKN035
     FM290100 33008KT P6SM SKC=



000
FTUS43 KIND 281100
TAFIND
TAF
KIND 281136Z 2812/2918 33011KT P6SM OVC020
     FM281500 32014KT P6SM BKN030
     FM282000 33015G25KT P6SM SCT035
     FM290100 33008KT P6SM SKC=



000
FTUS43 KIND 281100
TAFLAF
TAF
KLAF 281136Z 2812/2912 33007KT P6SM FEW030
     FM281500 32012KT P6SM BKN030
     FM281900 33013G22KT P6SM SCT035
     FM290100 32005KT P6SM SKC
      AMD LTD TO CLD VIS AND WIND TIL 281300=



000
FTUS43 KIND 280800 AAA
TAFIND
TAF AMD
KIND 280813Z 2808/2912 32010KT P6SM FEW035 SCT060
     FM280900 30010KT P6SM BKN020
     FM281500 32014KT P6SM BKN030
     FM282000 33015G25KT P6SM SCT035
     FM290100 33008KT P6SM SKC=



000
FTUS43 KIND 280500
TAFIND
TAF
KIND 280520Z 2806/2912 29011KT P6SM FEW060
     FM280900 30010KT P6SM BKN020
     FM281500 32014KT P6SM BKN030
     FM282000 33015G25KT P6SM SCT035
     FM290100 33008KT P6SM SKC=



000
FTUS43 KIND 280500
TAFLAF
TAF
KLAF 280520Z 2806/2906 28007KT P6SM SCT050
     FM280730 31008KT P6SM BKN020
     FM281500 32012KT P6SM BKN030
     FM281900 33013G22KT P6SM SCT035
     FM290100 32005KT P6SM SKC
      AMD LTD TO CLD VIS AND WIND TIL 281300=



000
FTUS43 KIND 280300 AAA
TAFLAF
TAF AMD
KLAF 280304Z 2803/2824 29008KT P6SM SCT050
     FM280700 31008KT P6SM BKN025
     FM281000 33010KT P6SM BKN015
     FM281500 32012KT P6SM BKN030
     FM281900 33014G24KT P6SM SCT035
      AMD LTD TO CLD VIS AND WIND TIL 281300=



000
FTUS43 KIND 280200 AAA
TAFIND
TAF AMD
KIND 280229Z 2802/2906 30013G20KT P6SM SCT060
     FM280800 30010KT P6SM BKN025
     FM281100 32011KT P6SM BKN015
     FM281500 32014KT P6SM BKN030
     FM282000 33015G25KT P6SM SCT035
     FM290100 33010KT P6SM SKC=



000
FTUS43 KIND 272300
TAFIND
TAF
KIND 272333Z 2800/2906 30014G20KT P6SM SCT050
     FM280800 30010KT P6SM BKN025
     FM281100 32011KT P6SM BKN015
     FM281500 32014KT P6SM BKN030
     FM282000 33015G25KT P6SM SCT035
     FM290100 33010KT P6SM SKC=



000
FTUS43 KIND 272300
TAFLAF
TAF
KLAF 272333Z 2800/2824 30012G20KT P6SM SCT050
     FM280700 31008KT P6SM BKN025
     FM281000 33010KT P6SM BKN015
     FM281500 32012KT P6SM BKN030
     FM281900 33014G24KT P6SM SCT035
      AMD LTD TO CLD VIS AND WIND 2801/2813=



000
FTUS43 KIND 272200 AAA
TAFIND
TAF AMD
KIND 272241Z 2723/2824 29019G28KT P6SM VCTS BKN040CB
     FM272330 30014KT P6SM SCT050
     FM280700 30010KT P6SM BKN025
     FM281100 33013KT P6SM BKN015=



000
FTUS43 KIND 272000 AAA
TAFLAF
TAF AMD
KLAF 272004Z 2720/2818 30015G25KT P6SM BKN045
     FM272200 31010KT P6SM SCT050
     FM280600 31007KT P6SM BKN025
     FM280900 32008KT 6SM BR BKN015
     FM281500 35012G18KT P6SM BKN025=



000
FTUS43 KIND 272000 AAB
TAFIND
TAF AMD
KIND 272003Z 2720/2824 28015G23KT P6SM SCT025 BKN040
     FM272100 29019G28KT P6SM BKN040
      TEMPO 2721/2723 30015G35KT 2SM TSRA OVC030CB
     FM272300 30014KT P6SM SCT050
     FM280700 30010KT P6SM BKN025
     FM281100 33013KT P6SM BKN015=



000
FTUS43 KIND 271900 AAA
TAFIND
TAF AMD
KIND 271922Z 2719/2824 28015G23KT P6SM SCT025 BKN040
     FM272000 29019G28KT P6SM VCTS BKN040CB
     FM272300 30014KT P6SM SCT050
     FM280700 30010KT P6SM BKN025
     FM281100 33013KT P6SM BKN015=



000
FTUS43 KIND 271700
TAFIND
TAF
KIND 271724Z 2718/2824 25012KT P6SM BKN015
     FM271900 28015G23KT P6SM BKN025
     FM272000 29019G28KT P6SM VCTS BKN035CB
     FM280000 30014KT P6SM SCT050
     FM280700 30010KT P6SM BKN025
     FM281100 33013KT P6SM BKN015=



000
FTUS43 KIND 271700
TAFLAF
TAF
KLAF 271724Z 2718/2818 27012KT P6SM BKN015
     FM271900 30018G27KT P6SM VCTS BKN035CB
     FM272300 31010KT P6SM SCT050
     FM280600 31007KT P6SM BKN025
     FM280900 32008KT 6SM BR BKN015
     FM281500 35012G18KT P6SM BKN025=



000
FTUS43 KIND 271600 AAB
TAFLAF
TAF AMD
KLAF 271607Z 2716/2812 24008KT 6SM BR OVC007
     FM271700 28011KT P6SM BKN015
     FM271830 30015G25KT P6SM VCTS BKN035CB
     FM280100 31008KT P6SM SCT050
     FM280900 32006KT 4SM BR BKN025=



000
FTUS43 KIND 271600 AAB
TAFLAF
TAF AMD
KLAF 271607Z 2716/2812 24008KT 6SM BR OVC007
     FM271700 28011KT P6SM BKN015
     FM271830 30015G25KT P6SM VCTS BKN035CB
     FM280100 31008KT P6SM SCT050
     FM280900 32006KT 4SM BR BKN025=



000
FTUS43 KIND 271600 AAA
TAFIND
TAF AMD
KIND 271603Z 2716/2818 22010KT P6SM OVC012
     FM271730 25014KT P6SM BKN020
     FM271900 29018G28KT P6SM VCTS BKN035CB
     FM280100 28011KT P6SM SCT050
     FM280800 29008KT 5SM BR BKN025=



000
FTUS43 KIND 271600 AAA
TAFIND
TAF AMD
KIND 271603Z 2716/2818 22010KT P6SM OVC012
     FM271730 25014KT P6SM BKN020
     FM271900 29018G28KT P6SM VCTS BKN035CB
     FM280100 28011KT P6SM SCT050
     FM280800 29008KT 5SM BR BKN025=



000
FTUS43 KIND 271400 AAA
TAFLAF
TAF AMD
KLAF 271406Z 2714/2812 VRB04KT 6SM BR VCSH OVC007
     FM271500 26009KT P6SM OVC015
     FM271700 30015G25KT P6SM VCTS BKN035CB
     FM280100 31008KT P6SM SCT050
     FM280900 32006KT 4SM BR BKN025=



000
FTUS43 KIND 271400 AAA
TAFIND
TAF AMD
KIND 271404Z 2714/2818 22008KT P6SM SCT007 OVC030
     FM271600 26012KT P6SM BKN025
     FM271800 29018G28KT P6SM VCTS BKN035CB
     FM280100 28011KT P6SM SCT050
     FM280800 29008KT 5SM BR BKN025=



000
FTUS43 KIND 271100
TAFLAF
TAF
KLAF 271120Z 2712/2812 00000KT 2SM BR VCTS FEW007CB SCT100
     FM271400 30010KT P6SM BKN040
     FM271700 30015G25KT P6SM VCTS BKN035CB
     FM280100 31008KT P6SM SCT050
     FM280900 32006KT 4SM BR BKN025
      AMD LTD TO CLD VIS AND WIND TIL 271300=



000
FTUS43 KIND 271100
TAFIND
TAF
KIND 271120Z 2712/2818 19006KT 3SM -RA BR BKN004 OVC110
     FM271500 27012KT P6SM BKN025
     FM271800 29018G28KT P6SM VCTS BKN035CB
     FM280100 28011KT P6SM SCT050
     FM280800 29008KT 5SM BR BKN025=



000
FTUS43 KIND 271000 AAA
TAFIND
TAF AMD
KIND 271017Z 2710/2812 22009KT 4SM -TSRA BR FEW004CB BKN070
     FM271200 25013KT P6SM VCTS BKN040CB
     FM272100 29018G28KT P6SM SCT040 BKN250
     FM280100 28010KT P6SM SCT040
     FM280800 29008KT 5SM BR BKN020=



000
FTUS43 KIND 271000 AAC
TAFLAF
TAF AMD
KLAF 271017Z 2710/2806 00000KT 4SM BR VCTS FEW006CB SCT070
     FM271230 27005KT 4SM BR BKN012
     FM271400 30010KT P6SM BKN040
     FM271800 30015G25KT P6SM SCT040 BKN250
     FM280100 31008KT P6SM SCT040 BKN250
      AMD LTD TO CLD VIS AND WIND TIL 271300=



000
FTUS43 KIND 270800 AAB
TAFLAF
TAF AMD
KLAF 270808Z 2708/2806 00000KT 6SM BR FEW002
      TEMPO 2708/2712 3/4SM BR
     FM271230 27005KT 4SM BR BKN012
     FM271400 30010KT P6SM BKN040
     FM271800 30015G25KT P6SM SCT040 BKN250
     FM280100 31008KT P6SM SCT040 BKN250
      AMD LTD TO CLD VIS AND WIND TIL 271300=



000
FTUS43 KIND 270800 AAA
TAFIND
TAF AMD
KIND 270807Z 2708/2812 33007KT 6SM BR BKN006 OVC110
     FM270900 22009KT 5SM BR BKN015
     FM271400 25013KT P6SM VCTS BKN040CB
     FM272100 29018G28KT P6SM SCT040 BKN250
     FM280100 28010KT P6SM SCT040
     FM280800 29008KT 5SM BR BKN020=



000
FTUS43 KIND 270700 AAA
TAFLAF
TAF AMD
KLAF 270708Z 2707/2806 18004KT 2SM BR FEW002
     FM270800 00000KT 3/4SM BR BKN004
     FM271230 27005KT 4SM BR BKN012
     FM271400 30010KT P6SM BKN040
     FM271800 30015G25KT P6SM SCT040 BKN250
     FM280100 31008KT P6SM SCT040 BKN250
      AMD LTD TO CLD VIS AND WIND TIL 271300=



000
FTUS43 KIND 270500
TAFLAF
TAF
KLAF 270520Z 2706/2806 18004KT 1 1/2SM BR FEW002
      TEMPO 2706/2708 3/4SM BR BKN004
     FM270800 00000KT 3/4SM BR BKN004
     FM271230 27005KT 4SM BR BKN012
     FM271400 30010KT P6SM BKN040
     FM271800 30015G25KT P6SM SCT040 BKN250
     FM280100 31008KT P6SM SCT040 BKN250
      AMD LTD TO CLD VIS AND WIND TIL 271300=



000
FTUS43 KIND 270500
TAFIND
TAF
KIND 270520Z 2706/2812 33007KT P6SM FEW120
     FM270900 22009KT 5SM BR BKN015
     FM271400 25013KT P6SM VCTS BKN040CB
     FM272100 29018G28KT P6SM SCT040 BKN250
     FM280100 28010KT P6SM SCT040
     FM280800 29008KT 5SM BR BKN020=



000
FTUS43 KIND 270300 AAB
TAFLAF
TAF AMD
KLAF 270335Z 2704/2724 18004KT 1 1/2SM BR SCT008
      TEMPO 2704/2708 3/4SM BR BKN004
     FM270800 00000KT 3/4SM BR BKN004
     FM271230 27005KT 3SM BR BKN012
     FM271500 30010KT P6SM BKN040
     FM271800 30015G25KT P6SM SCT040 BKN250
      AMD LTD TO CLD VIS AND WIND TIL 271300=



000
FTUS43 KIND 270200 AAA
TAFLAF
TAF AMD
KLAF 270240Z 2703/2724 18004KT P6SM SCT040 BKN250
     FM270500 23007KT P6SM BKN015
     FM271500 30010KT P6SM BKN040
     FM271800 30015G25KT P6SM SCT040 BKN250
      AMD LTD TO CLD VIS AND WIND TIL 271300=



000
FTUS43 KIND 270200 AAB
TAFIND
TAF AMD
KIND 270239Z 2703/2806 VRB03KT P6SM VCSH SCT035 BKN120
     FM270800 22009KT 5SM BR BKN015
     FM271400 25013KT P6SM VCTS BKN040CB
     FM272100 29018G28KT P6SM SCT040 BKN250
     FM280100 28010KT P6SM SCT040=



000
FTUS43 KIND 262300 AAA
TAFIND
TAF AMD
KIND 262351Z 2700/2806 24008KT P6SM OVC040
     FM270020 28020G33KT 3SM TSRA BKN020CB
     FM270130 23009KT 6SM BR VCTS BKN035CB
     FM270700 22009KT 6SM BR BKN015
     FM271500 25013KT P6SM VCTS BKN040CB
     FM272100 29018G28KT P6SM SCT040 BKN250
     FM280100 28010KT P6SM SCT040=



000
FTUS43 KIND 262300
TAFIND
TAF
KIND 262325Z 2700/2806 22011KT P6SM SCT025 BKN035
     FM270100 23009KT P6SM VCTS BKN035CB
      TEMPO 2701/2704 3SM TSRA BKN040CB
     FM270700 22009KT P6SM BKN015
     FM271500 25013KT P6SM VCTS BKN040CB
     FM272100 29018G28KT P6SM SCT040 BKN250
     FM280100 28010KT P6SM SCT040=



000
FTUS43 KIND 262300
TAFLAF
TAF
KLAF 262325Z 2700/2724 24006KT P6SM VCTS BKN020CB
     FM270500 23007KT P6SM BKN015
     FM271500 30010KT P6SM BKN040
     FM271800 30015G25KT P6SM SCT040 BKN250
      AMD LTD TO CLD VIS AND WIND 2701/2713=



000
FTUS43 KIND 262000 AAB
TAFIND
TAF AMD
KIND 262030Z 2621/2724 22011KT P6SM BKN025
     FM270100 23009KT P6SM VCTS BKN035CB
     FM270300 21008KT 3SM TSRA BKN040CB
     FM270900 22009KT P6SM BKN015
     FM272000 25013KT P6SM VCTS BKN040CB=



000
FTUS43 KIND 261800 AAA
TAFLAF
TAF AMD
KLAF 261840Z 2619/2718 21008KT P6SM BKN025
     FM262300 24006KT P6SM VCTS BKN040CB
     FM270100 22005KT 3SM TSRA BKN040CB
     FM270700 23007KT P6SM BKN015=



000
FTUS43 KIND 261800 AAA
TAFIND
TAF AMD
KIND 261840Z 2619/2724 22013KT P6SM BKN025
     FM270100 23009KT P6SM VCTS BKN040CB
     FM270300 21008KT 3SM TSRA BKN040CB
     FM270900 22009KT P6SM BKN015
     FM272000 25013KT P6SM VCTS BKN040CB=



000
FTUS43 KIND 261700
TAFLAF
TAF
KLAF 261720Z 2618/2718 21008KT P6SM OVC040
     FM262300 24006KT P6SM VCTS BKN040CB
     FM270100 22005KT 3SM TSRA BKN040CB
     FM270700 23007KT P6SM BKN015=



000
FTUS43 KIND 261700
TAFIND
TAF
KIND 261720Z 2618/2724 22013KT P6SM FEW050 BKN250
     FM270100 23009KT P6SM VCTS BKN040CB
     FM270300 21008KT 3SM TSRA BKN040CB
     FM270900 22009KT P6SM BKN015
     FM272000 25013KT P6SM VCTS BKN040CB=



000
FTUS43 KIND 261400 AAA
TAFIND
TAF AMD
KIND 261426Z 2614/2718 22013KT P6SM SCT050 BKN250
     FM262300 23009KT P6SM VCTS BKN040CB
     FM270400 19010KT 3SM TSRA BKN040CB
     FM271100 20010KT P6SM BKN015=



    US Dept of Commerce
    National Oceanic and Atmospheric Administration
    National Weather Service
    1325 East West Highway
    Silver Spring, MD 20910
    Page Author: NWS Internet Services Team
Disclaimer
Information Quality
Credits
Glossary
Privacy Policy
Freedom of Information Act (FOIA)
About Us
Career Opportunities